sensor_id;sensor_type;location;lat;lon;timestamp;pressure;altitude;pressure_sealevel;temperature;humidity
37291;BME280;23175;-33.706;151.094;2023-04-05T00:01:48;99940.82;;;16.19;52.06
37291;BME280;23175;-33.706;151.094;2023-04-05T00:04:17;99941.09;;;17.64;50.61
37291;BME280;23175;-33.706;151.094;2023-04-05T00:06:48;99946.39;;;17.60;50.61
37291;BME280;23175;-33.706;151.094;2023-04-05T00:09:20;99950.10;;;15.04;53.55
37291;BME280;23175;-33.706;151.094;2023-04-05T00:11:50;99951.11;;;16.54;52.91
37291;BME280;23175;-33.706;151.094;2023-04-05T00:14:20;99947.32;;;15.78;52.83
37291;BME280;23175;-33.706;151.094;2023-04-05T00:16:50;99946.10;;;16.58;52.39
37291;BME280;23175;-33.706;151.094;2023-04-05T00:19:21;99949.54;;;18.50;47.69
37291;BME280;23175;-33.706;151.094;2023-04-05T00:21:51;99950.90;;;15.88;52.74
37291;BME280;23175;-33.706;151.094;2023-04-05T00:24:21;99951.21;;;17.21;50.33
37291;BME280;23175;-33.706;151.094;2023-04-05T00:26:52;99957.05;;;16.47;53.61
37291;BME280;23175;-33.706;151.094;2023-04-05T00:29:22;99961.31;;;14.96;54.70
37291;BME280;23175;-33.706;151.094;2023-04-05T00:31:53;99959.07;;;15.29;56.12
37291;BME280;23175;-33.706;151.094;2023-04-05T00:34:23;99964.27;;;12.42;62.35
37291;BME280;23175;-33.706;151.094;2023-04-05T00:36:53;99960.76;;;16.82;54.46
37291;BME280;23175;-33.706;151.094;2023-04-05T00:39:23;99958.78;;;15.17;57.74
37291;BME280;23175;-33.706;151.094;2023-04-05T00:41:53;99958.88;;;16.52;55.13
37291;BME280;23175;-33.706;151.094;2023-04-05T00:44:23;99954.06;;;17.07;55.19
37291;BME280;23175;-33.706;151.094;2023-04-05T00:46:54;99953.25;;;16.34;55.92
37291;BME280;23175;-33.706;151.094;2023-04-05T00:49:24;99951.86;;;16.38;56.01
37291;BME280;23175;-33.706;151.094;2023-04-05T00:51:56;99952.51;;;18.70;53.58
37291;BME280;23175;-33.706;151.094;2023-04-05T00:54:26;99947.32;;;19.16;51.33
37291;BME280;23175;-33.706;151.094;2023-04-05T00:56:57;99942.49;;;19.91;51.91
37291;BME280;23175;-33.706;151.094;2023-04-05T00:59:27;99932.74;;;18.62;51.79
37291;BME280;23175;-33.706;151.094;2023-04-05T01:02:14;99927.94;;;19.36;50.59
37291;BME280;23175;-33.706;151.094;2023-04-05T01:04:52;99930.78;;;18.96;50.45
37291;BME280;23175;-33.706;151.094;2023-04-05T01:07:27;99935.69;;;18.12;51.80
37291;BME280;23175;-33.706;151.094;2023-04-05T01:09:59;99932.94;;;19.79;48.96
37291;BME280;23175;-33.706;151.094;2023-04-05T01:12:31;99927.57;;;20.84;46.70
37291;BME280;23175;-33.706;151.094;2023-04-05T01:15:01;99928.73;;;20.64;47.69
37291;BME280;23175;-33.706;151.094;2023-04-05T01:17:32;99927.92;;;18.36;50.80
37291;BME280;23175;-33.706;151.094;2023-04-05T01:20:04;99926.48;;;19.43;49.34
37291;BME280;23175;-33.706;151.094;2023-04-05T01:22:53;99920.26;;;19.39;50.59
37291;BME280;23175;-33.706;151.094;2023-04-05T01:25:53;99921.78;;;20.10;49.59
37291;BME280;23175;-33.706;151.094;2023-04-05T01:28:52;99919.30;;;18.66;52.20
37291;BME280;23175;-33.706;151.094;2023-04-05T01:31:28;99917.75;;;18.39;53.51
37291;BME280;23175;-33.706;151.094;2023-04-05T01:34:07;99913.95;;;18.52;53.36
37291;BME280;23175;-33.706;151.094;2023-04-05T01:36:47;99908.60;;;17.80;54.51
37291;BME280;23175;-33.706;151.094;2023-04-05T01:39:21;99906.27;;;17.97;53.26
37291;BME280;23175;-33.706;151.094;2023-04-05T01:41:52;99909.07;;;18.91;52.99
37291;BME280;23175;-33.706;151.094;2023-04-05T01:44:26;99904.09;;;19.30;51.38
37291;BME280;23175;-33.706;151.094;2023-04-05T01:46:57;99901.35;;;17.08;55.45
37291;BME280;23175;-33.706;151.094;2023-04-05T01:49:27;99907.14;;;18.08;54.15
37291;BME280;23175;-33.706;151.094;2023-04-05T01:51:57;99902.14;;;16.92;56.41
37291;BME280;23175;-33.706;151.094;2023-04-05T01:54:27;99895.84;;;19.46;52.28
37291;BME280;23175;-33.706;151.094;2023-04-05T01:56:58;99895.31;;;18.95;53.06
37291;BME280;23175;-33.706;151.094;2023-04-05T01:59:28;99887.18;;;19.23;52.92
37291;BME280;23175;-33.706;151.094;2023-04-05T02:01:59;99874.80;;;20.65;50.87
37291;BME280;23175;-33.706;151.094;2023-04-05T02:04:29;99871.30;;;19.95;51.67
37291;BME280;23175;-33.706;151.094;2023-04-05T02:06:59;99870.38;;;19.81;52.94
37291;BME280;23175;-33.706;151.094;2023-04-05T02:09:29;99869.89;;;20.04;51.75
37291;BME280;23175;-33.706;151.094;2023-04-05T02:11:59;99860.98;;;20.85;52.05
37291;BME280;23175;-33.706;151.094;2023-04-05T02:14:29;99849.83;;;21.30;51.45
37291;BME280;23175;-33.706;151.094;2023-04-05T02:16:59;99838.16;;;19.93;53.25
37291;BME280;23175;-33.706;151.094;2023-04-05T02:19:29;99834.58;;;20.43;53.35
37291;BME280;23175;-33.706;151.094;2023-04-05T02:22:00;99834.81;;;20.75;52.92
37291;BME280;23175;-33.706;151.094;2023-04-05T02:24:30;99834.43;;;18.34;56.76
37291;BME280;23175;-33.706;151.094;2023-04-05T02:27:00;99828.65;;;18.56;56.55
37291;BME280;23175;-33.706;151.094;2023-04-05T02:29:31;99826.62;;;18.24;56.10
37291;BME280;23175;-33.706;151.094;2023-04-05T02:32:01;99817.23;;;17.08;58.01
37291;BME280;23175;-33.706;151.094;2023-04-05T02:34:31;99812.38;;;19.69;52.57
37291;BME280;23175;-33.706;151.094;2023-04-05T02:37:02;99810.57;;;16.04;61.18
37291;BME280;23175;-33.706;151.094;2023-04-05T02:39:32;99799.82;;;18.61;56.13
37291;BME280;23175;-33.706;151.094;2023-04-05T02:42:02;99795.44;;;18.72;52.80
37291;BME280;23175;-33.706;151.094;2023-04-05T02:44:32;99786.87;;;18.87;55.19
37291;BME280;23175;-33.706;151.094;2023-04-05T02:47:02;99783.60;;;18.13;56.12
37291;BME280;23175;-33.706;151.094;2023-04-05T02:49:33;99774.54;;;19.51;54.12
37291;BME280;23175;-33.706;151.094;2023-04-05T02:52:03;99772.82;;;17.25;57.32
37291;BME280;23175;-33.706;151.094;2023-04-05T02:54:33;99765.52;;;20.90;50.49
37291;BME280;23175;-33.706;151.094;2023-04-05T02:57:05;99768.64;;;17.25;55.20
37291;BME280;23175;-33.706;151.094;2023-04-05T02:59:37;99768.15;;;18.33;53.14
37291;BME280;23175;-33.706;151.094;2023-04-05T03:02:07;99768.51;;;18.49;52.47
37291;BME280;23175;-33.706;151.094;2023-04-05T03:04:37;99770.69;;;16.43;58.31
37291;BME280;23175;-33.706;151.094;2023-04-05T03:07:07;99767.11;;;15.54;58.44
37291;BME280;23175;-33.706;151.094;2023-04-05T03:09:38;99755.80;;;18.49;52.07
37291;BME280;23175;-33.706;151.094;2023-04-05T03:12:08;99750.47;;;18.68;53.61
37291;BME280;23175;-33.706;151.094;2023-04-05T03:14:38;99746.86;;;17.55;56.14
37291;BME280;23175;-33.706;151.094;2023-04-05T03:17:09;99743.87;;;15.78;55.72
37291;BME280;23175;-33.706;151.094;2023-04-05T03:19:39;99741.70;;;17.80;54.74
37291;BME280;23175;-33.706;151.094;2023-04-05T03:22:09;99744.67;;;15.21;58.32
37291;BME280;23175;-33.706;151.094;2023-04-05T03:24:40;99739.34;;;15.66;57.74
37291;BME280;23175;-33.706;151.094;2023-04-05T03:27:10;99738.74;;;16.57;54.83
37291;BME280;23175;-33.706;151.094;2023-04-05T03:29:42;99737.05;;;18.39;51.80
37291;BME280;23175;-33.706;151.094;2023-04-05T03:32:11;99730.16;;;17.87;52.47
37291;BME280;23175;-33.706;151.094;2023-04-05T03:34:42;99729.87;;;18.95;49.70
37291;BME280;23175;-33.706;151.094;2023-04-05T03:37:13;99730.90;;;15.58;55.76
37291;BME280;23175;-33.706;151.094;2023-04-05T03:39:43;99727.34;;;17.99;51.07
37291;BME280;23175;-33.706;151.094;2023-04-05T03:42:14;99724.06;;;18.67;50.10
37291;BME280;23175;-33.706;151.094;2023-04-05T03:44:44;99721.65;;;17.50;51.69
37291;BME280;23175;-33.706;151.094;2023-04-05T03:47:14;99720.77;;;17.42;50.89
37291;BME280;23175;-33.706;151.094;2023-04-05T03:49:44;99713.94;;;19.95;46.77
37291;BME280;23175;-33.706;151.094;2023-04-05T03:52:15;99711.38;;;18.54;49.13
37291;BME280;23175;-33.706;151.094;2023-04-05T03:54:45;99706.16;;;17.59;49.12
37291;BME280;23175;-33.706;151.094;2023-04-05T03:57:17;99708.02;;;19.37;49.05
37291;BME280;23175;-33.706;151.094;2023-04-05T03:59:47;99708.34;;;16.64;50.65
37291;BME280;23175;-33.706;151.094;2023-04-05T04:02:17;99696.29;;;18.84;48.29
37291;BME280;23175;-33.706;151.094;2023-04-05T04:04:48;99704.24;;;17.93;50.42
37291;BME280;23175;-33.706;151.094;2023-04-05T04:07:18;99696.16;;;18.15;49.51
37291;BME280;23175;-33.706;151.094;2023-04-05T04:09:48;99696.16;;;17.10;50.35
37291;BME280;23175;-33.706;151.094;2023-04-05T04:12:19;99695.72;;;18.48;48.18
37291;BME280;23175;-33.706;151.094;2023-04-05T04:14:49;99700.62;;;18.35;47.16
37291;BME280;23175;-33.706;151.094;2023-04-05T04:17:28;99696.56;;;16.54;48.23
37291;BME280;23175;-33.706;151.094;2023-04-05T04:20:00;99693.49;;;17.24;50.03
37291;BME280;23175;-33.706;151.094;2023-04-05T04:22:48;99690.61;;;17.52;50.79
37291;BME280;23175;-33.706;151.094;2023-04-05T04:25:19;99689.33;;;18.73;48.34
37291;BME280;23175;-33.706;151.094;2023-04-05T04:27:49;99686.77;;;18.10;49.73
37291;BME280;23175;-33.706;151.094;2023-04-05T04:30:20;99686.40;;;18.02;48.53
37291;BME280;23175;-33.706;151.094;2023-04-05T04:32:51;99691.86;;;15.95;51.98
37291;BME280;23175;-33.706;151.094;2023-04-05T04:35:22;99687.27;;;18.60;46.13
37291;BME280;23175;-33.706;151.094;2023-04-05T04:37:55;99679.62;;;18.61;45.67
37291;BME280;23175;-33.706;151.094;2023-04-05T04:40:28;99682.23;;;17.86;48.08
37291;BME280;23175;-33.706;151.094;2023-04-05T04:42:58;99685.31;;;17.34;48.60
37291;BME280;23175;-33.706;151.094;2023-04-05T04:45:30;99683.16;;;18.60;47.07
37291;BME280;23175;-33.706;151.094;2023-04-05T04:48:01;99686.07;;;17.79;49.69
37291;BME280;23175;-33.706;151.094;2023-04-05T04:50:32;99679.62;;;18.59;48.65
37291;BME280;23175;-33.706;151.094;2023-04-05T04:53:02;99679.98;;;17.64;51.04
37291;BME280;23175;-33.706;151.094;2023-04-05T04:55:34;99678.95;;;19.89;46.86
37291;BME280;23175;-33.706;151.094;2023-04-05T04:58:05;99681.11;;;18.32;48.09
37291;BME280;23175;-33.706;151.094;2023-04-05T05:00:38;99684.63;;;20.14;45.60
37291;BME280;23175;-33.706;151.094;2023-04-05T05:03:09;99691.02;;;18.39;47.38
37291;BME280;23175;-33.706;151.094;2023-04-05T05:05:43;99690.59;;;19.30;46.55
37291;BME280;23175;-33.706;151.094;2023-04-05T05:08:14;99688.75;;;19.92;44.57
37291;BME280;23175;-33.706;151.094;2023-04-05T05:10:44;99695.60;;;18.20;47.62
37291;BME280;23175;-33.706;151.094;2023-04-05T05:13:14;99697.01;;;17.40;49.15
37291;BME280;23175;-33.706;151.094;2023-04-05T05:15:44;99688.80;;;18.78;48.45
37291;BME280;23175;-33.706;151.094;2023-04-05T05:18:15;99688.13;;;19.28;47.56
37291;BME280;23175;-33.706;151.094;2023-04-05T05:20:48;99696.07;;;18.30;48.79
37291;BME280;23175;-33.706;151.094;2023-04-05T05:23:18;99695.18;;;18.81;47.79
37291;BME280;23175;-33.706;151.094;2023-04-05T05:25:48;99698.83;;;18.17;51.04
37291;BME280;23175;-33.706;151.094;2023-04-05T05:28:18;99696.95;;;20.69;45.83
37291;BME280;23175;-33.706;151.094;2023-04-05T05:30:49;99692.37;;;20.00;46.77
37291;BME280;23175;-33.706;151.094;2023-04-05T05:33:19;99696.88;;;17.10;50.86
37291;BME280;23175;-33.706;151.094;2023-04-05T05:35:50;99697.38;;;18.74;47.92
37291;BME280;23175;-33.706;151.094;2023-04-05T05:38:19;99697.92;;;18.04;48.10
37291;BME280;23175;-33.706;151.094;2023-04-05T05:40:55;99699.71;;;17.34;48.86
37291;BME280;23175;-33.706;151.094;2023-04-05T05:43:25;99697.45;;;17.92;46.87
37291;BME280;23175;-33.706;151.094;2023-04-05T05:45:56;99694.60;;;18.29;46.56
37291;BME280;23175;-33.706;151.094;2023-04-05T05:48:29;99693.62;;;19.35;45.01
37291;BME280;23175;-33.706;151.094;2023-04-05T05:50:59;99695.79;;;18.70;45.74
37291;BME280;23175;-33.706;151.094;2023-04-05T05:53:29;99690.45;;;18.97;45.54
37291;BME280;23175;-33.706;151.094;2023-04-05T05:56:00;99687.70;;;19.64;45.21
37291;BME280;23175;-33.706;151.094;2023-04-05T05:58:31;99690.58;;;16.90;50.62
37291;BME280;23175;-33.706;151.094;2023-04-05T06:01:01;99687.91;;;18.70;47.93
37291;BME280;23175;-33.706;151.094;2023-04-05T06:03:32;99690.79;;;18.25;47.16
37291;BME280;23175;-33.706;151.094;2023-04-05T06:06:02;99692.77;;;20.40;43.77
37291;BME280;23175;-33.706;151.094;2023-04-05T06:08:32;99690.99;;;19.98;43.74
37291;BME280;23175;-33.706;151.094;2023-04-05T06:11:03;99691.31;;;20.74;42.94
37291;BME280;23175;-33.706;151.094;2023-04-05T06:13:33;99687.45;;;20.07;43.97
37291;BME280;23175;-33.706;151.094;2023-04-05T06:16:04;99689.73;;;18.73;45.97
37291;BME280;23175;-33.706;151.094;2023-04-05T06:18:33;99688.34;;;19.34;45.15
37291;BME280;23175;-33.706;151.094;2023-04-05T06:21:04;99684.84;;;19.35;45.12
37291;BME280;23175;-33.706;151.094;2023-04-05T06:23:33;99688.04;;;18.32;46.10
37291;BME280;23175;-33.706;151.094;2023-04-05T06:26:04;99686.45;;;18.22;46.53
37291;BME280;23175;-33.706;151.094;2023-04-05T06:28:34;99688.23;;;19.48;45.42
37291;BME280;23175;-33.706;151.094;2023-04-05T06:31:05;99694.63;;;18.58;46.36
37291;BME280;23175;-33.706;151.094;2023-04-05T06:33:35;99696.16;;;19.13;45.61
37291;BME280;23175;-33.706;151.094;2023-04-05T06:36:06;99699.96;;;20.84;43.24
37291;BME280;23175;-33.706;151.094;2023-04-05T06:38:36;99702.51;;;19.49;46.28
37291;BME280;23175;-33.706;151.094;2023-04-05T06:41:06;99705.48;;;19.91;45.03
37291;BME280;23175;-33.706;151.094;2023-04-05T06:43:36;99708.60;;;18.87;46.56
37291;BME280;23175;-33.706;151.094;2023-04-05T06:46:07;99707.50;;;20.61;43.97
37291;BME280;23175;-33.706;151.094;2023-04-05T06:48:37;99712.79;;;17.05;49.07
37291;BME280;23175;-33.706;151.094;2023-04-05T06:51:07;99713.74;;;16.42;52.08
37291;BME280;23175;-33.706;151.094;2023-04-05T06:53:37;99710.10;;;16.91;50.52
37291;BME280;23175;-33.706;151.094;2023-04-05T06:56:08;99708.48;;;18.68;46.94
37291;BME280;23175;-33.706;151.094;2023-04-05T06:58:39;99711.03;;;18.96;46.96
37291;BME280;23175;-33.706;151.094;2023-04-05T07:01:09;99717.52;;;18.44;47.92
37291;BME280;23175;-33.706;151.094;2023-04-05T07:03:39;99716.68;;;19.05;47.18
37291;BME280;23175;-33.706;151.094;2023-04-05T07:06:09;99718.64;;;17.13;49.92
37291;BME280;23175;-33.706;151.094;2023-04-05T07:08:39;99715.86;;;17.35;49.55
37291;BME280;23175;-33.706;151.094;2023-04-05T07:11:09;99715.23;;;19.06;47.17
37291;BME280;23175;-33.706;151.094;2023-04-05T07:13:39;99720.07;;;17.90;48.57
37291;BME280;23175;-33.706;151.094;2023-04-05T07:16:09;99715.97;;;18.82;47.84
37291;BME280;23175;-33.706;151.094;2023-04-05T07:18:40;99714.12;;;18.70;48.49
37291;BME280;23175;-33.706;151.094;2023-04-05T07:21:10;99719.52;;;17.33;49.90
37291;BME280;23175;-33.706;151.094;2023-04-05T07:23:41;99716.15;;;20.21;45.62
37291;BME280;23175;-33.706;151.094;2023-04-05T07:26:11;99721.88;;;18.29;49.21
37291;BME280;23175;-33.706;151.094;2023-04-05T07:28:41;99725.33;;;17.97;50.03
37291;BME280;23175;-33.706;151.094;2023-04-05T07:31:15;99724.28;;;18.37;49.64
37291;BME280;23175;-33.706;151.094;2023-04-05T07:33:45;99729.55;;;18.96;48.36
37291;BME280;23175;-33.706;151.094;2023-04-05T07:36:16;99731.83;;;20.28;47.00
37291;BME280;23175;-33.706;151.094;2023-04-05T07:38:46;99731.79;;;18.81;48.67
37291;BME280;23175;-33.706;151.094;2023-04-05T07:41:17;99733.83;;;19.81;47.09
37291;BME280;23175;-33.706;151.094;2023-04-05T07:43:47;99732.12;;;17.77;49.09
37291;BME280;23175;-33.706;151.094;2023-04-05T07:46:17;99729.85;;;20.70;45.53
37291;BME280;23175;-33.706;151.094;2023-04-05T07:48:48;99729.70;;;19.31;47.13
37291;BME280;23175;-33.706;151.094;2023-04-05T07:51:17;99729.00;;;19.94;46.84
37291;BME280;23175;-33.706;151.094;2023-04-05T07:53:47;99733.17;;;21.08;45.20
37291;BME280;23175;-33.706;151.094;2023-04-05T07:56:17;99736.10;;;21.02;44.79
37291;BME280;23175;-33.706;151.094;2023-04-05T07:58:47;99739.18;;;19.35;48.18
37291;BME280;23175;-33.706;151.094;2023-04-05T08:01:17;99738.24;;;21.20;44.00
37291;BME280;23175;-33.706;151.094;2023-04-05T08:03:48;99736.67;;;20.42;46.16
37291;BME280;23175;-33.706;151.094;2023-04-05T08:06:18;99738.05;;;21.40;44.73
37291;BME280;23175;-33.706;151.094;2023-04-05T08:08:48;99742.53;;;20.80;45.70
37291;BME280;23175;-33.706;151.094;2023-04-05T08:11:18;99746.29;;;19.52;47.47
37291;BME280;23175;-33.706;151.094;2023-04-05T08:13:48;99747.10;;;20.37;46.59
37291;BME280;23175;-33.706;151.094;2023-04-05T08:16:18;99748.03;;;21.46;44.31
37291;BME280;23175;-33.706;151.094;2023-04-05T08:18:48;99753.46;;;17.93;50.72
37291;BME280;23175;-33.706;151.094;2023-04-05T08:21:18;99750.18;;;20.92;45.38
37291;BME280;23175;-33.706;151.094;2023-04-05T08:23:48;99753.88;;;19.78;47.32
37291;BME280;23175;-33.706;151.094;2023-04-05T08:26:18;99757.36;;;19.38;47.50
37291;BME280;23175;-33.706;151.094;2023-04-05T08:28:49;99754.70;;;20.93;45.36
37291;BME280;23175;-33.706;151.094;2023-04-05T08:31:19;99756.44;;;21.01;45.02
37291;BME280;23175;-33.706;151.094;2023-04-05T08:33:49;99758.18;;;21.43;44.33
37291;BME280;23175;-33.706;151.094;2023-04-05T08:36:20;99761.23;;;20.92;44.55
37291;BME280;23175;-33.706;151.094;2023-04-05T08:38:50;99767.07;;;21.27;44.62
37291;BME280;23175;-33.706;151.094;2023-04-05T08:41:22;99768.04;;;19.83;46.56
37291;BME280;23175;-33.706;151.094;2023-04-05T08:43:56;99768.16;;;20.89;45.27
37291;BME280;23175;-33.706;151.094;2023-04-05T08:46:26;99772.41;;;21.35;43.85
37291;BME280;23175;-33.706;151.094;2023-04-05T08:48:58;99771.16;;;21.15;44.69
37291;BME280;23175;-33.706;151.094;2023-04-05T08:51:28;99776.66;;;21.32;44.09
37291;BME280;23175;-33.706;151.094;2023-04-05T08:53:59;99775.52;;;21.27;44.30
37291;BME280;23175;-33.706;151.094;2023-04-05T08:56:33;99775.46;;;21.31;44.57
37291;BME280;23175;-33.706;151.094;2023-04-05T08:59:05;99778.73;;;21.49;44.14
37291;BME280;23175;-33.706;151.094;2023-04-05T09:01:41;99779.51;;;21.01;44.93
37291;BME280;23175;-33.706;151.094;2023-04-05T09:04:15;99783.61;;;21.67;44.55
37291;BME280;23175;-33.706;151.094;2023-04-05T09:06:45;99787.04;;;21.05;45.12
37291;BME280;23175;-33.706;151.094;2023-04-05T09:09:17;99793.12;;;21.25;44.76
37291;BME280;23175;-33.706;151.094;2023-04-05T09:11:49;99791.03;;;21.10;45.13
37291;BME280;23175;-33.706;151.094;2023-04-05T09:14:19;99787.05;;;20.97;45.43
37291;BME280;23175;-33.706;151.094;2023-04-05T09:16:50;99784.00;;;20.88;45.24
37291;BME280;23175;-33.706;151.094;2023-04-05T09:19:20;99790.77;;;19.80;45.77
37291;BME280;23175;-33.706;151.094;2023-04-05T09:22:07;99792.99;;;21.07;45.48
37291;BME280;23175;-33.706;151.094;2023-04-05T09:24:38;99794.68;;;20.67;45.59
37291;BME280;23175;-33.706;151.094;2023-04-05T09:27:10;99795.02;;;20.94;45.81
37291;BME280;23175;-33.706;151.094;2023-04-05T09:29:41;99799.30;;;20.73;46.06
37291;BME280;23175;-33.706;151.094;2023-04-05T09:32:13;99803.48;;;20.71;45.99
37291;BME280;23175;-33.706;151.094;2023-04-05T09:34:43;99806.66;;;20.51;46.36
37291;BME280;23175;-33.706;151.094;2023-04-05T09:37:15;99811.14;;;20.28;47.27
37291;BME280;23175;-33.706;151.094;2023-04-05T09:39:47;99809.73;;;20.83;46.22
37291;BME280;23175;-33.706;151.094;2023-04-05T09:42:19;99812.45;;;20.44;46.31
37291;BME280;23175;-33.706;151.094;2023-04-05T09:44:51;99815.74;;;20.71;46.42
37291;BME280;23175;-33.706;151.094;2023-04-05T09:47:23;99819.95;;;19.95;46.69
37291;BME280;23175;-33.706;151.094;2023-04-05T09:49:53;99820.53;;;20.64;46.62
37291;BME280;23175;-33.706;151.094;2023-04-05T09:52:25;99820.97;;;20.69;46.52
37291;BME280;23175;-33.706;151.094;2023-04-05T09:54:57;99824.57;;;20.55;46.45
37291;BME280;23175;-33.706;151.094;2023-04-05T09:57:28;99826.17;;;20.14;46.53
37291;BME280;23175;-33.706;151.094;2023-04-05T09:59:58;99829.91;;;20.57;46.56
37291;BME280;23175;-33.706;151.094;2023-04-05T10:02:37;99834.15;;;20.12;46.55
37291;BME280;23175;-33.706;151.094;2023-04-05T10:05:09;99837.09;;;20.02;46.72
37291;BME280;23175;-33.706;151.094;2023-04-05T10:07:40;99836.06;;;20.33;46.67
37291;BME280;23175;-33.706;151.094;2023-04-05T10:10:11;99834.73;;;20.18;46.88
37291;BME280;23175;-33.706;151.094;2023-04-05T10:12:41;99838.83;;;20.21;46.71
37291;BME280;23175;-33.706;151.094;2023-04-05T10:15:12;99844.77;;;19.30;47.91
37291;BME280;23175;-33.706;151.094;2023-04-05T10:17:48;99849.05;;;18.77;48.31
37291;BME280;23175;-33.706;151.094;2023-04-05T10:20:22;99848.55;;;18.88;47.68
37291;BME280;23175;-33.706;151.094;2023-04-05T10:23:00;99848.49;;;20.02;46.83
37291;BME280;23175;-33.706;151.094;2023-04-05T10:25:45;99849.52;;;19.91;47.02
37291;BME280;23175;-33.706;151.094;2023-04-05T10:28:21;99855.62;;;19.75;46.81
37291;BME280;23175;-33.706;151.094;2023-04-05T10:31:01;99855.49;;;20.49;46.97
37291;BME280;23175;-33.706;151.094;2023-04-05T10:33:39;99856.13;;;19.89;46.93
37291;BME280;23175;-33.706;151.094;2023-04-05T10:36:21;99861.40;;;19.80;46.93
37291;BME280;23175;-33.706;151.094;2023-04-05T10:39:02;99867.85;;;19.96;47.90
37291;BME280;23175;-33.706;151.094;2023-04-05T10:41:38;99871.64;;;19.51;47.42
37291;BME280;23175;-33.706;151.094;2023-04-05T10:44:10;99878.63;;;19.92;47.43
37291;BME280;23175;-33.706;151.094;2023-04-05T10:46:41;99878.05;;;20.02;47.17
37291;BME280;23175;-33.706;151.094;2023-04-05T10:49:32;99879.95;;;19.87;47.48
37291;BME280;23175;-33.706;151.094;2023-04-05T10:52:04;99879.43;;;20.20;47.39
37291;BME280;23175;-33.706;151.094;2023-04-05T10:54:34;99881.85;;;19.89;47.38
37291;BME280;23175;-33.706;151.094;2023-04-05T10:57:06;99885.77;;;19.94;47.34
37291;BME280;23175;-33.706;151.094;2023-04-05T10:59:43;99883.03;;;19.66;47.60
37291;BME280;23175;-33.706;151.094;2023-04-05T11:02:15;99883.77;;;20.08;47.41
37291;BME280;23175;-33.706;151.094;2023-04-05T11:04:45;99881.29;;;19.43;47.19
37291;BME280;23175;-33.706;151.094;2023-04-05T11:07:17;99881.29;;;19.64;47.26
37291;BME280;23175;-33.706;151.094;2023-04-05T11:09:58;99886.34;;;18.95;48.44
37291;BME280;23175;-33.706;151.094;2023-04-05T11:13:13;99888.54;;;19.24;48.03
37291;BME280;23175;-33.706;151.094;2023-04-05T11:15:44;99891.08;;;19.08;47.97
37291;BME280;23175;-33.706;151.094;2023-04-05T11:18:21;99891.67;;;19.71;47.67
37291;BME280;23175;-33.706;151.094;2023-04-05T11:20:53;99898.23;;;19.68;47.49
37291;BME280;23175;-33.706;151.094;2023-04-05T11:23:24;99900.27;;;19.29;47.54
37291;BME280;23175;-33.706;151.094;2023-04-05T11:26:04;99899.29;;;18.64;48.44
37291;BME280;23175;-33.706;151.094;2023-04-05T11:28:36;99898.20;;;19.43;47.92
37291;BME280;23175;-33.706;151.094;2023-04-05T11:31:16;99898.51;;;19.25;47.71
37291;BME280;23175;-33.706;151.094;2023-04-05T11:33:57;99897.47;;;19.24;48.17
37291;BME280;23175;-33.706;151.094;2023-04-05T11:36:38;99901.00;;;19.34;47.87
37291;BME280;23175;-33.706;151.094;2023-04-05T11:39:25;99902.60;;;19.22;48.05
37291;BME280;23175;-33.706;151.094;2023-04-05T11:42:00;99906.36;;;19.26;47.87
37291;BME280;23175;-33.706;151.094;2023-04-05T11:44:41;99904.39;;;19.52;47.51
37291;BME280;23175;-33.706;151.094;2023-04-05T11:47:12;99907.22;;;19.16;47.74
37291;BME280;23175;-33.706;151.094;2023-04-05T11:49:49;99907.92;;;19.18;47.21
37291;BME280;23175;-33.706;151.094;2023-04-05T11:52:20;99908.72;;;19.19;47.77
37291;BME280;23175;-33.706;151.094;2023-04-05T11:54:50;99907.83;;;19.30;47.45
37291;BME280;23175;-33.706;151.094;2023-04-05T11:57:22;99902.75;;;18.88;47.60
37291;BME280;23175;-33.706;151.094;2023-04-05T11:59:53;99897.44;;;19.14;47.64
37291;BME280;23175;-33.706;151.094;2023-04-05T12:02:23;99898.94;;;18.89;47.44
37291;BME280;23175;-33.706;151.094;2023-04-05T12:04:56;99898.69;;;19.34;47.15
37291;BME280;23175;-33.706;151.094;2023-04-05T12:07:28;99893.80;;;19.20;47.41
37291;BME280;23175;-33.706;151.094;2023-04-05T12:10:02;99893.61;;;18.80;48.05
37291;BME280;23175;-33.706;151.094;2023-04-05T12:12:37;99892.85;;;19.12;47.39
37291;BME280;23175;-33.706;151.094;2023-04-05T12:15:10;99886.73;;;19.07;47.96
37291;BME280;23175;-33.706;151.094;2023-04-05T12:17:42;99882.93;;;18.85;47.77
37291;BME280;23175;-33.706;151.094;2023-04-05T12:20:15;99881.00;;;18.90;47.50
37291;BME280;23175;-33.706;151.094;2023-04-05T12:22:46;99876.42;;;18.85;47.61
37291;BME280;23175;-33.706;151.094;2023-04-05T12:25:17;99876.02;;;19.23;47.08
37291;BME280;23175;-33.706;151.094;2023-04-05T12:27:48;99877.65;;;19.22;46.95
37291;BME280;23175;-33.706;151.094;2023-04-05T12:30:21;99879.00;;;19.03;47.12
37291;BME280;23175;-33.706;151.094;2023-04-05T12:32:53;99880.35;;;18.51;48.19
37291;BME280;23175;-33.706;151.094;2023-04-05T12:35:27;99879.98;;;18.80;47.43
37291;BME280;23175;-33.706;151.094;2023-04-05T12:38:00;99881.62;;;18.93;47.17
37291;BME280;23175;-33.706;151.094;2023-04-05T12:40:31;99880.44;;;18.84;47.45
37291;BME280;23175;-33.706;151.094;2023-04-05T12:43:04;99877.99;;;18.99;47.09
37291;BME280;23175;-33.706;151.094;2023-04-05T12:45:34;99881.75;;;18.68;47.52
37291;BME280;23175;-33.706;151.094;2023-04-05T12:48:08;99881.40;;;18.69;47.53
37291;BME280;23175;-33.706;151.094;2023-04-05T12:50:43;99881.26;;;18.66;46.92
37291;BME280;23175;-33.706;151.094;2023-04-05T12:53:18;99882.38;;;18.63;47.43
37291;BME280;23175;-33.706;151.094;2023-04-05T12:55:50;99879.48;;;18.39;47.69